Fecha, hora, temperatura, viento dirección y velocidad, humedad y presión.

  • 19-03-2019 23:00:00 | 10.20°C | Sudeste |9.00 km/h | 82.00% | 1024.90 hPa
  • 19-03-2019 22:00:00 | 10.90°C | Este |8.00 km/h | 78.00% | 1024.80 hPa
  • 19-03-2019 21:00:00 | 11.30°C | Nordeste |12.00 km/h | 77.00% | 1024.40 hPa
  • 19-03-2019 20:00:00 | 11.30°C | Norte |9.00 km/h | 78.00% | 1024.10 hPa
  • 19-03-2019 19:00:00 | 11.90°C | Norte |7.00 km/h | 73.00% | 1023.70 hPa
  • 19-03-2019 18:00:00 | 12.80°C | Nordeste |8.00 km/h | 70.00% | 1023.30 hPa
  • 19-03-2019 17:00:00 | 12.80°C | Nordeste |10.00 km/h | 70.00% | 1023.30 hPa
  • 19-03-2019 16:00:00 | 13.90°C | Nordeste |9.00 km/h | 66.00% | 1023.40 hPa
  • 19-03-2019 15:00:00 | 13.70°C | Norte |5.00 km/h | 69.00% | 1023.40 hPa
  • 19-03-2019 14:00:00 | 13.80°C | Noroeste |9.00 km/h | 70.00% | 1023.80 hPa
  • 19-03-2019 13:00:00 | 13.50°C | Nordeste |5.00 km/h | 70.00% | 1023.90 hPa
  • 19-03-2019 12:00:00 | 12.90°C | Oeste |4.00 km/h | 71.00% | 1023.90 hPa
  • 19-03-2019 11:00:00 | 12.50°C | Oeste |4.00 km/h | 77.00% | 1023.90 hPa
  • 19-03-2019 10:00:00 | 9.90°C | Sudeste |11.00 km/h | 84.00% | 1023.60 hPa
  • 19-03-2019 09:00:00 | 8.60°C | Sudeste |14.00 km/h | 85.00% | 1023.20 hPa
  • 19-03-2019 08:00:00 | 8.20°C | Sudeste |12.00 km/h | 84.00% | 1022.60 hPa
  • 19-03-2019 07:00:00 | 7.90°C | Sudeste |15.00 km/h | 84.00% | 1022.30 hPa
  • 19-03-2019 06:00:00 | 8.00°C | Sudeste |13.00 km/h | 82.00% | 1022.30 hPa
  • 19-03-2019 05:00:00 | 7.90°C | Sudeste |11.00 km/h | 82.00% | 1022.20 hPa
  • 19-03-2019 04:00:00 | 7.80°C | Sur |14.00 km/h | 81.00% | 1022.30 hPa
  • 19-03-2019 03:00:00 | 7.80°C | Sur |13.00 km/h | 81.00% | 1022.90 hPa
  • 19-03-2019 02:00:00 | 7.60°C | Sur |14.00 km/h | 81.00% | 1023.20 hPa
  • 19-03-2019 01:00:00 | 7.70°C | Sur |13.00 km/h | 81.00% | 1023.40 hPa
  • 19-03-2019 00:00:00 | 7.80°C | Sur |14.00 km/h | 81.00% | 1023.40 hPa
    • diseño web asturias Información sobre el estado de las mareas, altura de la marejada, temperatura del agua y otros datos de Gijón en Asturias.

      Surf Gijón